Time;durP1;ratioP1;P1;durP2;ratioP2;P2;SDS_P1;SDS_P2;PMS_P1;PMS_P2;Temp;Humidity;BMP_temperature;BMP_pressure;BME280_temperature;BME280_humidity;BME280_pressure;Samples;Min_cycle;Max_cycle;Signal;HPM_P1;HPM_P2
2020/12/09 00:00:17;;;;;;;7.35;1.20;;;23.40;52.70;;;;;;5091543;28;20835;-84
2020/12/09 00:02:45;;;;;;;5.38;1.30;;;23.80;50.20;;;;;;5091081;28;20961;-83
2020/12/09 00:05:13;;;;;;;5.18;1.20;;;23.90;48.40;;;;;;5090883;28;20832;-84
2020/12/09 00:07:40;;;;;;;6.82;1.20;;;23.90;49.60;;;;;;5091030;28;20858;-83
2020/12/09 00:10:08;;;;;;;6.00;1.20;;;24.30;47.30;;;;;;5091114;28;20815;-85
2020/12/09 00:12:36;;;;;;;6.25;1.20;;;24.90;48.40;;;;;;5091241;28;20858;-84
2020/12/09 00:15:07;;;;;;;5.83;1.30;;;25.80;48.20;;;;;;5090981;28;20866;-84
2020/12/09 00:17:34;;;;;;;5.22;1.10;;;26.00;41.30;;;;;;5091188;28;20877;-85
2020/12/09 00:20:03;;;;;;;3.08;1.20;;;26.10;41.10;;;;;;5090436;28;20837;-84
2020/12/09 00:22:30;;;;;;;6.32;1.30;;;26.00;46.60;;;;;;5090569;28;20467;-83
2020/12/09 00:24:57;;;;;;;7.82;1.55;;;25.60;41.60;;;;;;5090468;28;20852;-83
2020/12/09 00:27:25;;;;;;;5.82;1.00;;;24.80;43.60;;;;;;5090712;28;20897;-83
2020/12/09 00:29:52;;;;;;;4.43;1.20;;;25.00;44.30;;;;;;5090837;28;20843;-83
2020/12/09 00:32:19;;;;;;;6.72;1.17;;;25.70;45.00;;;;;;5091775;28;20742;-84
2020/12/09 00:34:46;;;;;;;5.22;1.17;;;25.90;44.20;;;;;;5095443;28;20927;-83
2020/12/09 00:37:14;;;;;;;3.42;1.10;;;25.80;42.50;;;;;;5094918;28;20847;-85
2020/12/09 00:39:41;;;;;;;7.68;1.45;;;25.80;40.60;;;;;;5095067;28;20391;-83
2020/12/09 00:42:08;;;;;;;4.15;1.23;;;26.40;40.20;;;;;;5094754;28;20847;-85
2020/12/09 00:44:35;;;;;;;5.20;1.20;;;26.50;41.10;;;;;;5094947;28;20871;-84
2020/12/09 00:47:02;;;;;;;7.78;1.25;;;26.90;40.00;;;;;;5094797;28;20865;-83
2020/12/09 00:49:31;;;;;;;7.45;1.30;;;26.60;40.80;;;;;;5094775;28;20832;-82
2020/12/09 00:51:59;;;;;;;3.03;1.15;;;26.70;42.80;;;;;;5094803;28;20356;-84
2020/12/09 00:54:26;;;;;;;6.15;1.30;;;27.10;43.20;;;;;;5094582;28;20906;-83
2020/12/09 00:56:54;;;;;;;6.88;1.60;;;26.80;38.40;;;;;;5094630;28;20847;-83
2020/12/09 00:59:21;;;;;;;7.07;1.30;;;26.80;42.70;;;;;;5094181;28;21052;-83
2020/12/09 01:01:48;;;;;;;4.82;1.10;;;26.80;42.80;;;;;;5095207;28;20908;-82
2020/12/09 01:04:15;;;;;;;3.90;1.17;;;26.80;38.90;;;;;;5094372;28;20833;-83
2020/12/09 01:06:42;;;;;;;5.68;1.33;;;26.50;42.40;;;;;;5094598;28;20998;-86
2020/12/09 01:09:09;;;;;;;6.82;1.48;;;26.00;39.70;;;;;;5094450;28;20827;-87
2020/12/09 01:11:37;;;;;;;6.28;1.20;;;25.60;43.80;;;;;;5094296;28;20969;-85
2020/12/09 01:14:04;;;;;;;4.32;1.10;;;25.20;39.60;;;;;;5094290;28;20855;-85
2020/12/09 01:16:31;;;;;;;3.38;0.85;;;24.60;40.20;;;;;;5094305;28;20897;-85
2020/12/09 01:18:58;;;;;;;4.80;1.10;;;24.20;43.50;;;;;;5094316;28;20835;-86
2020/12/09 01:21:30;;;;;;;6.30;1.38;;;24.30;43.90;;;;;;5094169;28;20843;-86
2020/12/09 01:23:57;;;;;;;4.53;1.07;;;24.70;45.40;;;;;;5094179;28;20843;-85
2020/12/09 01:26:27;;;;;;;4.63;1.05;;;25.20;45.90;;;;;;5096276;28;20360;-86
2020/12/09 01:28:54;;;;;;;4.65;1.00;;;25.60;39.30;;;;;;5097010;28;20859;-87
2020/12/09 01:31:24;;;;;;;8.15;1.40;;;25.50;43.10;;;;;;5096008;28;20984;-87
2020/12/09 01:33:51;;;;;;;6.95;1.38;;;25.50;45.90;;;;;;5094881;28;20774;-87
2020/12/09 01:36:25;;;;;;;4.83;1.03;;;25.50;41.40;;;;;;5094326;28;20722;-87
2020/12/09 01:38:53;;;;;;;4.75;1.00;;;25.40;40.90;;;;;;5094383;28;20855;-87
2020/12/09 01:41:24;;;;;;;5.40;1.30;;;25.50;40.70;;;;;;5076566;28;20851;-86
2020/12/09 01:43:53;;;;;;;3.38;0.98;;;25.60;40.00;;;;;;5093608;28;20843;-85
2020/12/09 01:46:31;;;;;;;4.25;1.17;;;25.70;39.10;;;;;;5093875;28;20897;-87
2020/12/09 01:49:00;;;;;;;4.23;0.93;;;25.70;39.60;;;;;;5093773;28;20857;-87
2020/12/09 01:51:29;;;;;;;3.05;1.00;;;25.60;38.70;;;;;;5093959;28;20859;-85
2020/12/09 01:53:59;;;;;;;3.47;0.90;;;25.60;40.30;;;;;;5093515;28;20727;-84
2020/12/09 01:56:27;;;;;;;3.10;0.80;;;25.80;40.60;;;;;;5093608;28;20900;-84
2020/12/09 01:58:58;;;;;;;3.15;0.80;;;25.70;37.50;;;;;;5095082;28;20848;-86
2020/12/09 02:01:27;;;;;;;3.17;1.15;;;25.60;38.70;;;;;;5098132;28;20703;-86
2020/12/09 02:03:55;;;;;;;3.17;1.00;;;25.40;39.30;;;;;;5095240;28;20831;-85
2020/12/09 02:06:22;;;;;;;9.38;1.30;;;25.50;42.50;;;;;;5095829;28;20360;-83
2020/12/09 02:08:50;;;;;;;4.63;1.00;;;25.60;39.50;;;;;;5095698;28;20893;-84
2020/12/09 02:11:17;;;;;;;4.28;0.90;;;25.60;40.60;;;;;;5095990;28;20944;-84
2020/12/09 02:13:48;;;;;;;5.90;1.17;;;25.70;41.60;;;;;;5095267;28;20393;-82
2020/12/09 02:16:18;;;;;;;3.67;1.00;;;25.60;39.00;;;;;;5095088;28;20835;-82
2020/12/09 02:18:46;;;;;;;4.95;1.15;;;25.40;40.90;;;;;;5094434;28;20910;-85
2020/12/09 02:21:13;;;;;;;5.68;1.15;;;25.30;40.60;;;;;;5093032;28;20803;-84
2020/12/09 02:23:40;;;;;;;5.50;1.15;;;25.40;42.50;;;;;;5093136;28;20908;-84
2020/12/09 02:26:08;;;;;;;5.68;1.27;;;25.60;42.30;;;;;;5092767;28;20836;-84
2020/12/09 02:28:35;;;;;;;3.40;0.60;;;25.60;41.70;;;;;;5092688;28;20901;-86
2020/12/09 02:31:02;;;;;;;3.25;1.05;;;25.80;40.10;;;;;;5093001;28;20843;-84
2020/12/09 02:33:29;;;;;;;3.75;0.98;;;25.80;36.40;;;;;;5092975;28;20866;-83
2020/12/09 02:35:58;;;;;;;3.42;0.77;;;25.60;36.80;;;;;;5093054;28;20898;-85
2020/12/09 02:38:25;;;;;;;4.67;1.10;;;25.20;38.50;;;;;;5093327;28;20870;-84
2020/12/09 02:40:52;;;;;;;3.70;0.90;;;25.20;41.50;;;;;;5092878;28;20875;-85
2020/12/09 02:43:19;;;;;;;5.03;1.00;;;25.20;38.80;;;;;;5092769;28;20922;-83
2020/12/09 02:45:46;;;;;;;5.40;1.08;;;25.20;36.60;;;;;;5092707;28;20916;-83
2020/12/09 02:48:14;;;;;;;2.95;0.95;;;25.10;36.10;;;;;;5092362;28;20984;-84
2020/12/09 02:50:41;;;;;;;3.03;0.75;;;24.90;38.80;;;;;;5074204;28;20372;-85
2020/12/09 02:53:08;;;;;;;4.78;1.00;;;25.10;43.80;;;;;;5092209;28;20919;-84
2020/12/09 02:55:35;;;;;;;3.50;0.90;;;25.40;41.40;;;;;;5092087;28;20847;-85
2020/12/09 02:58:03;;;;;;;4.03;0.95;;;25.70;41.20;;;;;;5092832;28;20855;-85
2020/12/09 03:00:30;;;;;;;4.47;1.10;;;25.70;39.00;;;;;;5092399;28;20875;-85
2020/12/09 03:02:57;;;;;;;3.90;0.80;;;25.80;38.40;;;;;;5092707;28;20843;-84
2020/12/09 03:05:24;;;;;;;5.85;1.10;;;26.00;39.50;;;;;;5092755;28;20858;-84
2020/12/09 03:07:51;;;;;;;3.35;0.82;;;26.20;39.70;;;;;;5093179;28;20843;-82
2020/12/09 03:10:20;;;;;;;4.35;1.02;;;26.10;34.10;;;;;;5092356;28;20942;-84
2020/12/09 03:12:47;;;;;;;3.57;1.00;;;26.10;37.20;;;;;;5092425;28;20387;-85
2020/12/09 03:15:14;;;;;;;3.75;1.00;;;26.10;39.70;;;;;;5092622;28;20889;-84
2020/12/09 03:17:41;;;;;;;3.70;0.85;;;26.20;35.80;;;;;;5092660;28;20742;-84
2020/12/09 03:20:09;;;;;;;4.18;1.10;;;26.10;37.40;;;;;;5092267;28;20909;-84
2020/12/09 03:22:36;;;;;;;3.60;1.00;;;26.00;35.50;;;;;;5091518;28;20934;-84
2020/12/09 03:25:03;;;;;;;3.90;0.88;;;25.50;37.30;;;;;;5091958;28;20928;-85
2020/12/09 03:27:31;;;;;;;4.43;0.82;;;25.30;39.60;;;;;;5096544;28;20839;-84
2020/12/09 03:29:58;;;;;;;3.38;0.90;;;25.50;41.10;;;;;;5092135;28;20851;-85
2020/12/09 03:32:25;;;;;;;5.77;1.20;;;25.60;39.00;;;;;;5091694;28;20835;-84
2020/12/09 03:34:52;;;;;;;6.95;1.90;;;25.80;45.70;;;;;;5091850;28;20847;-85
2020/12/09 03:37:20;;;;;;;10.25;1.85;;;25.80;49.40;;;;;;5091647;28;20847;-82
2020/12/09 03:39:47;;;;;;;8.55;1.70;;;25.20;48.80;;;;;;5091469;28;20914;-87
2020/12/09 03:42:14;;;;;;;4.95;1.63;;;24.80;49.70;;;;;;5092206;28;20399;-86
2020/12/09 03:44:42;;;;;;;9.65;1.85;;;24.50;51.30;;;;;;5091736;28;20930;-83
2020/12/09 03:47:09;;;;;;;7.13;1.40;;;24.20;51.10;;;;;;5091439;28;20851;-84
2020/12/09 03:49:36;;;;;;;4.35;1.20;;;24.10;51.90;;;;;;5091389;28;20723;-84
2020/12/09 03:52:04;;;;;;;6.82;1.30;;;24.30;52.80;;;;;;5091461;28;20815;-83
2020/12/09 03:54:31;;;;;;;8.75;1.55;;;24.40;51.70;;;;;;5091263;28;20898;-84
2020/12/09 03:56:58;;;;;;;6.72;1.50;;;24.20;51.10;;;;;;5091394;28;20371;-84
2020/12/09 03:59:25;;;;;;;6.85;1.45;;;24.10;52.30;;;;;;5091417;28;20871;-84
2020/12/09 04:01:52;;;;;;;7.82;1.50;;;24.10;52.50;;;;;;5091292;28;20965;-85
2020/12/09 04:04:20;;;;;;;8.73;1.55;;;24.10;53.70;;;;;;5091112;28;20855;-84
2020/12/09 04:06:48;;;;;;;6.90;1.70;;;24.00;52.40;;;;;;5090672;28;20363;-83
2020/12/09 04:09:15;;;;;;;7.25;1.92;;;24.10;54.10;;;;;;5090784;28;20836;-84
2020/12/09 04:11:42;;;;;;;4.82;1.45;;;24.10;53.10;;;;;;5091160;28;20731;-83
2020/12/09 04:14:09;;;;;;;6.30;1.40;;;24.00;52.00;;;;;;5091794;28;20945;-83
2020/12/09 04:16:36;;;;;;;5.82;1.50;;;23.90;54.20;;;;;;5091468;28;20862;-84
2020/12/09 04:19:04;;;;;;;7.85;1.80;;;23.80;54.30;;;;;;5091159;28;20878;-82
2020/12/09 04:21:31;;;;;;;5.63;1.50;;;23.90;53.60;;;;;;5090972;28;20939;-83
2020/12/09 04:23:58;;;;;;;4.80;1.47;;;24.10;55.00;;;;;;5090831;28;20372;-85
2020/12/09 04:26:25;;;;;;;6.15;1.70;;;24.30;53.90;;;;;;5090940;28;20717;-84
2020/12/09 04:28:52;;;;;;;3.15;1.25;;;24.40;51.90;;;;;;5091230;28;20890;-84
2020/12/09 04:31:19;;;;;;;7.43;1.33;;;24.00;52.30;;;;;;5090963;28;20832;-85
2020/12/09 04:33:54;;;;;;;7.68;1.77;;;23.70;54.50;;;;;;5072534;28;20732;-86
2020/12/09 04:36:22;;;;;;;7.90;1.60;;;23.70;53.90;;;;;;5090740;28;20851;-83
2020/12/09 04:38:50;;;;;;;7.35;1.70;;;23.70;54.10;;;;;;5090745;28;20871;-84
2020/12/09 04:41:17;;;;;;;7.85;1.77;;;23.60;55.00;;;;;;5090780;28;20922;-88
2020/12/09 04:43:44;;;;;;;5.50;1.48;;;23.40;54.80;;;;;;5091369;28;20861;-85
2020/12/09 04:46:12;;;;;;;8.73;1.87;;;23.20;55.60;;;;;;5090722;28;20851;-84
2020/12/09 04:49:06;;;;;;;5.30;1.55;;;23.20;55.80;;;;;;5090648;28;20839;-85
2020/12/09 04:51:52;;;;;;;8.35;1.98;;;23.20;54.80;;;;;;5090541;28;20839;-84
2020/12/09 04:54:26;;;;;;;8.40;1.58;;;23.30;54.50;;;;;;5090704;28;20431;-86
2020/12/09 04:56:54;;;;;;;5.57;1.50;;;23.20;54.40;;;;;;5090486;28;20920;-84
2020/12/09 04:59:26;;;;;;;10.13;1.45;;;23.10;55.80;;;;;;5090359;28;20878;-85
2020/12/09 05:02:10;;;;;;;5.22;1.30;;;23.30;55.70;;;;;;5090557;28;20869;-84
2020/12/09 05:04:39;;;;;;;8.77;1.70;;;23.20;54.80;;;;;;5090628;28;20897;-84
2020/12/09 05:07:10;;;;;;;6.72;1.73;;;23.30;55.70;;;;;;5090498;28;20843;-84
2020/12/09 05:09:48;;;;;;;7.85;1.90;;;23.20;55.40;;;;;;5090581;28;20869;-86
2020/12/09 05:12:17;;;;;;;5.22;1.65;;;23.20;55.10;;;;;;5090992;28;20877;-84
2020/12/09 05:14:47;;;;;;;6.47;1.57;;;23.10;55.90;;;;;;5090549;28;20883;-86
2020/12/09 05:17:20;;;;;;;8.50;1.60;;;23.20;56.90;;;;;;5091770;28;20862;-85
2020/12/09 05:19:49;;;;;;;8.30;1.65;;;23.20;56.60;;;;;;5095907;28;20913;-84
2020/12/09 05:22:21;;;;;;;5.22;1.70;;;23.00;56.40;;;;;;5096426;28;20388;-84
2020/12/09 05:24:49;;;;;;;7.07;1.58;;;22.90;57.20;;;;;;5096729;28;20842;-82
2020/12/09 05:27:17;;;;;;;7.90;1.88;;;22.60;57.90;;;;;;5097694;28;20835;-85
2020/12/09 05:29:50;;;;;;;6.07;1.60;;;22.50;58.20;;;;;;5098232;28;20372;-85
2020/12/09 05:32:18;;;;;;;6.32;1.60;;;22.50;58.20;;;;;;5097749;28;20851;-85
2020/12/09 05:34:46;;;;;;;7.43;1.45;;;22.50;58.80;;;;;;5098557;28;20882;-84
2020/12/09 05:37:13;;;;;;;8.45;2.00;;;22.60;58.70;;;;;;5100366;28;20365;-87
2020/12/09 05:39:52;;;;;;;7.00;1.70;;;22.50;57.90;;;;;;5106965;28;20839;-88
2020/12/09 05:42:21;;;;;;;9.60;1.90;;;22.60;58.00;;;;;;5110248;28;20395;-86
2020/12/09 05:44:50;;;;;;;9.15;1.60;;;22.50;58.30;;;;;;5098205;28;20886;-86
2020/12/09 05:47:23;;;;;;;9.32;1.52;;;22.50;58.70;;;;;;5100091;28;20380;-86
2020/12/09 05:49:50;;;;;;;8.75;1.70;;;22.60;59.70;;;;;;5102143;28;20843;-88
2020/12/09 05:52:20;;;;;;;6.43;1.58;;;22.70;58.40;;;;;;5102237;28;20878;-89
2020/12/09 05:54:49;;;;;;;7.90;1.70;;;22.50;58.00;;;;;;5103148;28;20467;-88
2020/12/09 05:57:24;;;;;;;8.18;1.73;;;22.20;59.10;;;;;;5101267;28;20431;-87
2020/12/09 05:59:52;;;;;;;7.45;1.70;;;22.10;59.80;;;;;;5101171;28;20843;-86
2020/12/09 06:02:21;;;;;;;7.80;1.33;;;22.10;60.50;;;;;;5103533;28;20376;-86
2020/12/09 06:04:53;;;;;;;6.67;1.70;;;22.00;60.00;;;;;;5081144;28;20882;-88
2020/12/09 06:07:23;;;;;;;5.88;1.30;;;21.90;60.60;;;;;;5101784;28;20939;-86
2020/12/09 06:10:08;;;;;;;11.80;1.87;;;21.90;60.30;;;;;;5101877;28;20400;-89
2020/12/09 06:13:01;;;;;;;8.05;1.52;;;21.90;60.70;;;;;;5100295;28;20383;-86
2020/12/09 06:15:33;;;;;;;6.88;1.70;;;21.90;60.90;;;;;;5100069;28;20840;-88
2020/12/09 06:18:11;;;;;;;7.15;1.80;;;21.80;61.50;;;;;;5099374;28;20376;-88
2020/12/09 06:20:41;;;;;;;7.10;1.33;;;21.80;61.00;;;;;;5098343;28;20411;-86
2020/12/09 06:23:14;;;;;;;8.15;1.55;;;21.60;61.90;;;;;;5100786;28;20932;-85
2020/12/09 06:25:43;;;;;;;6.15;1.50;;;21.60;60.70;;;;;;5099282;28;20417;-88
2020/12/09 06:28:14;;;;;;;6.93;1.90;;;21.60;62.00;;;;;;5096562;28;20377;-85
2020/12/09 06:30:42;;;;;;;7.03;1.83;;;21.60;62.00;;;;;;5078398;28;20853;-85
2020/12/09 06:33:10;;;;;;;6.43;1.70;;;21.70;62.00;;;;;;5096592;28;20848;-87
2020/12/09 06:35:38;;;;;;;6.90;1.67;;;21.70;61.60;;;;;;5100231;28;20873;-88
2020/12/09 06:38:09;;;;;;;7.15;1.80;;;21.50;62.00;;;;;;5102998;28;20836;-85
2020/12/09 06:40:58;;;;;;;5.53;1.40;;;21.50;62.30;;;;;;5097206;28;20376;-87
2020/12/09 06:43:25;;;;;;;7.90;1.50;;;21.50;62.00;;;;;;5099647;28;20908;-85
2020/12/09 06:45:52;;;;;;;5.28;1.10;;;21.30;61.70;;;;;;5098925;28;20366;-88
2020/12/09 06:48:19;;;;;;;8.27;1.63;;;21.20;62.10;;;;;;5098446;28;20855;-87
2020/12/09 06:50:48;;;;;;;8.05;1.63;;;21.20;62.60;;;;;;5102294;28;20824;-88
2020/12/09 06:53:24;;;;;;;8.18;1.70;;;21.20;62.20;;;;;;5099343;28;20871;-81
2020/12/09 06:56:12;;;;;;;7.28;1.27;;;21.20;62.70;;;;;;5098738;28;20881;-85
2020/12/09 06:58:39;;;;;;;7.13;1.65;;;21.20;61.40;;;;;;5095364;28;20870;-85
2020/12/09 07:01:08;;;;;;;5.88;1.70;;;21.20;60.80;;;;;;5099191;28;20938;-84
2020/12/09 07:03:37;;;;;;;8.60;1.90;;;21.10;61.50;;;;;;5097570;28;20942;-87
2020/12/09 07:06:17;;;;;;;4.85;1.30;;;21.00;61.60;;;;;;5101104;28;20866;-85
2020/12/09 07:08:49;;;;;;;6.93;1.23;;;21.00;61.70;;;;;;5097714;28;20727;-87
2020/12/09 07:11:17;;;;;;;8.63;1.70;;;20.90;61.80;;;;;;5099901;28;20900;-87
2020/12/09 07:13:44;;;;;;;6.80;1.60;;;20.70;62.90;;;;;;5100188;28;20906;-87
2020/12/09 07:16:11;;;;;;;6.63;2.00;;;20.50;63.90;;;;;;5099930;28;20407;-84
2020/12/09 07:18:40;;;;;;;4.75;1.45;;;20.50;64.40;;;;;;5099774;28;20364;-86
2020/12/09 07:21:08;;;;;;;10.07;1.83;;;20.50;64.30;;;;;;5098086;28;20866;-87
2020/12/09 07:23:35;;;;;;;6.80;1.55;;;20.40;64.50;;;;;;5102081;28;20426;-88
2020/12/09 07:26:03;;;;;;;7.25;1.63;;;20.40;64.80;;;;;;5082471;28;20855;-86
2020/12/09 07:28:34;;;;;;;8.70;1.92;;;20.50;64.50;;;;;;5099063;28;20874;-87
2020/12/09 07:31:09;;;;;;;7.30;1.45;;;20.50;65.40;;;;;;5094110;28;20812;-86
2020/12/09 07:33:37;;;;;;;6.00;1.67;;;20.40;65.00;;;;;;5096735;28;20847;-84
2020/12/09 07:36:06;;;;;;;7.40;1.70;;;20.30;64.20;;;;;;5093742;28;20852;-85
2020/12/09 07:38:33;;;;;;;7.57;1.50;;;20.30;64.00;;;;;;5094245;28;20883;-83
2020/12/09 07:41:02;;;;;;;8.45;1.77;;;20.20;64.70;;;;;;5093731;28;20879;-84
2020/12/09 07:43:29;;;;;;;5.78;1.27;;;20.20;66.10;;;;;;5094656;28;21698;-84
2020/12/09 07:46:04;;;;;;;7.25;1.63;;;20.10;66.90;;;;;;5075500;28;20863;-83
2020/12/09 07:48:33;;;;;;;8.07;1.60;;;20.10;67.20;;;;;;5092637;28;20835;-84
2020/12/09 07:51:01;;;;;;;7.10;1.75;;;20.00;67.80;;;;;;5091858;28;20914;-83
2020/12/09 07:53:28;;;;;;;8.57;1.80;;;20.00;68.30;;;;;;5092749;28;20403;-85
2020/12/09 07:55:59;;;;;;;6.13;1.63;;;19.90;69.40;;;;;;5093105;28;20878;-85
2020/12/09 07:58:27;;;;;;;7.38;1.65;;;19.90;69.00;;;;;;5094265;28;20871;-83
2020/12/09 08:00:55;;;;;;;9.02;2.00;;;19.90;68.90;;;;;;5075116;28;20696;-84
2020/12/09 08:03:25;;;;;;;9.32;1.70;;;19.90;69.60;;;;;;5092976;28;20863;-84
2020/12/09 08:05:53;;;;;;;9.48;1.90;;;19.80;69.50;;;;;;5092684;28;20855;-84
2020/12/09 08:08:22;;;;;;;8.20;1.83;;;19.80;69.90;;;;;;5092060;28;20923;-83
2020/12/09 08:10:51;;;;;;;11.35;2.10;;;19.70;69.70;;;;;;5092719;28;20936;-82
2020/12/09 08:13:26;;;;;;;9.87;2.00;;;19.80;69.60;;;;;;5093524;28;20948;-84
2020/12/09 08:16:14;;;;;;;7.22;1.58;;;19.70;69.00;;;;;;5094307;28;20862;-84
2020/12/09 08:18:43;;;;;;;10.73;1.55;;;19.70;68.10;;;;;;5096973;28;20387;-84
2020/12/09 08:21:11;;;;;;;6.07;1.60;;;19.60;67.80;;;;;;5096869;28;20881;-83
2020/12/09 08:23:50;;;;;;;6.50;1.40;;;19.50;67.60;;;;;;5098191;28;20879;-83
2020/12/09 08:26:33;;;;;;;6.72;1.55;;;19.50;67.40;;;;;;5094955;28;20435;-84
2020/12/09 08:29:01;;;;;;;8.18;1.48;;;19.40;67.90;;;;;;5094839;28;20451;-86
2020/12/09 08:31:29;;;;;;;9.70;1.65;;;19.40;67.50;;;;;;5092000;28;20912;-85
2020/12/09 08:33:56;;;;;;;8.50;1.40;;;19.40;67.80;;;;;;5092375;28;20859;-84
2020/12/09 08:36:26;;;;;;;6.05;1.35;;;19.30;67.60;;;;;;5091488;28;20863;-84
2020/12/09 08:38:59;;;;;;;9.00;1.60;;;19.30;68.20;;;;;;5091787;28;20859;-87
2020/12/09 08:41:31;;;;;;;12.70;1.85;;;19.20;68.60;;;;;;5095755;28;20855;-87
2020/12/09 08:43:59;;;;;;;6.30;1.70;;;19.20;68.80;;;;;;5092448;28;20890;-85
2020/12/09 08:46:28;;;;;;;10.35;1.85;;;19.20;69.20;;;;;;5091890;28;20843;-87
2020/12/09 08:48:57;;;;;;;7.97;1.80;;;19.20;69.60;;;;;;5092375;28;20863;-85
2020/12/09 08:51:26;;;;;;;9.00;2.30;;;19.10;70.20;;;;;;5091597;28;20468;-84
2020/12/09 08:53:54;;;;;;;7.65;1.95;;;19.10;70.80;;;;;;5092100;28;20373;-85
2020/12/09 08:56:39;;;;;;;9.05;2.20;;;19.00;71.40;;;;;;5077243;28;20870;-86
2020/12/09 08:59:09;;;;;;;10.02;2.03;;;19.00;71.90;;;;;;5076855;28;20388;-86
2020/12/09 09:01:37;;;;;;;7.57;1.85;;;19.00;72.50;;;;;;5095119;28;20862;-87
2020/12/09 09:04:08;;;;;;;9.10;1.90;;;18.90;72.70;;;;;;5077396;28;20895;-86
2020/12/09 09:06:35;;;;;;;8.68;2.08;;;18.90;73.30;;;;;;5094999;28;20784;-88
2020/12/09 09:09:03;;;;;;;9.80;2.20;;;18.80;73.80;;;;;;5094812;28;20889;-87
2020/12/09 09:11:31;;;;;;;8.13;1.80;;;18.80;74.30;;;;;;5094834;28;20839;-87
2020/12/09 09:13:58;;;;;;;12.68;2.30;;;18.80;74.10;;;;;;5094940;28;20368;-86
2020/12/09 09:16:25;;;;;;;7.40;2.03;;;18.70;74.30;;;;;;5094773;28;20843;-84
2020/12/09 09:18:53;;;;;;;9.13;1.90;;;18.70;74.60;;;;;;5094411;28;20896;-84
2020/12/09 09:21:21;;;;;;;8.40;1.98;;;18.60;74.50;;;;;;5094178;28;20859;-82
2020/12/09 09:23:48;;;;;;;8.07;1.40;;;18.70;74.70;;;;;;5095561;28;20900;-83
2020/12/09 09:26:15;;;;;;;8.85;1.77;;;18.60;74.80;;;;;;5094241;28;20831;-84
2020/12/09 09:28:45;;;;;;;5.43;1.73;;;18.60;75.00;;;;;;5094821;28;20916;-84
2020/12/09 09:31:12;;;;;;;7.10;1.70;;;18.60;75.20;;;;;;5094178;28;20862;-84
2020/12/09 09:33:39;;;;;;;9.20;1.88;;;18.60;75.10;;;;;;5093988;28;20786;-82
2020/12/09 09:36:07;;;;;;;12.23;1.90;;;18.50;75.10;;;;;;5094894;28;20836;-84
2020/12/09 09:38:34;;;;;;;8.95;1.80;;;18.40;75.40;;;;;;5094360;28;20914;-83
2020/12/09 09:41:01;;;;;;;12.35;2.35;;;18.40;75.80;;;;;;5094049;28;20858;-83
2020/12/09 09:43:29;;;;;;;11.85;2.10;;;18.40;76.10;;;;;;5094596;28;20922;-84
2020/12/09 09:45:57;;;;;;;6.07;1.90;;;18.40;76.10;;;;;;5095049;28;20889;-82
2020/12/09 09:48:25;;;;;;;10.30;2.10;;;18.40;76.30;;;;;;5094477;28;20867;-81
2020/12/09 09:50:52;;;;;;;7.93;1.60;;;18.40;76.40;;;;;;5094024;28;20874;-82
2020/12/09 09:53:19;;;;;;;8.25;1.80;;;18.40;76.70;;;;;;5094209;28;20850;-82
2020/12/09 09:55:46;;;;;;;11.55;2.20;;;18.40;77.00;;;;;;5075482;28;20836;-82
2020/12/09 09:58:14;;;;;;;6.57;1.70;;;18.30;77.20;;;;;;5075490;28;20885;-82
2020/12/09 10:00:41;;;;;;;8.23;1.83;;;18.30;77.30;;;;;;5077871;28;20365;-82
2020/12/09 10:03:08;;;;;;;7.13;1.93;;;18.30;77.30;;;;;;5093521;28;20889;-82
2020/12/09 10:05:35;;;;;;;11.18;1.80;;;18.30;77.30;;;;;;5073924;28;20842;-82
2020/12/09 10:08:03;;;;;;;9.85;2.20;;;18.30;77.40;;;;;;5093162;28;20918;-82
2020/12/09 10:10:31;;;;;;;8.68;1.55;;;18.30;77.60;;;;;;5093229;28;20832;-81
2020/12/09 10:12:58;;;;;;;8.07;1.97;;;18.20;77.60;;;;;;5093462;28;20851;-83
2020/12/09 10:15:25;;;;;;;7.95;1.92;;;18.20;78.00;;;;;;5093240;28;20477;-83
2020/12/09 10:17:52;;;;;;;9.85;1.83;;;18.20;78.20;;;;;;5093114;28;20841;-82
2020/12/09 10:20:19;;;;;;;12.60;2.20;;;18.10;78.30;;;;;;5093224;28;20930;-83
2020/12/09 10:22:46;;;;;;;5.85;1.77;;;18.20;78.40;;;;;;5092868;28;20867;-83
2020/12/09 10:25:15;;;;;;;8.80;1.90;;;18.20;78.50;;;;;;5093170;28;20946;-84
2020/12/09 10:27:42;;;;;;;9.05;1.80;;;18.10;78.70;;;;;;5092842;28;20843;-83
2020/12/09 10:30:09;;;;;;;11.35;1.73;;;18.20;78.60;;;;;;5092704;28;20874;-82
2020/12/09 10:32:37;;;;;;;11.25;2.30;;;18.10;78.90;;;;;;5074408;28;20766;-83
2020/12/09 10:35:04;;;;;;;8.88;2.03;;;18.10;79.20;;;;;;5092853;28;20874;-83
2020/12/09 10:37:32;;;;;;;8.43;2.13;;;18.00;79.50;;;;;;5092670;28;20855;-83
2020/12/09 10:39:59;;;;;;;8.23;2.00;;;18.00;79.80;;;;;;5092795;28;20364;-83
2020/12/09 10:42:27;;;;;;;8.75;2.13;;;17.90;80.10;;;;;;5092447;28;20866;-83
2020/12/09 10:44:54;;;;;;;10.38;1.52;;;17.90;80.10;;;;;;5093015;28;21011;-83
2020/12/09 10:47:22;;;;;;;9.95;1.85;;;17.90;80.30;;;;;;5092412;28;20711;-83
2020/12/09 10:49:49;;;;;;;7.68;1.65;;;17.90;80.30;;;;;;5092482;28;20381;-84
2020/12/09 10:52:16;;;;;;;8.07;1.85;;;17.90;80.50;;;;;;5092578;28;20788;-84
2020/12/09 10:54:44;;;;;;;11.88;2.22;;;17.80;80.70;;;;;;5092376;28;20862;-85
2020/12/09 10:57:11;;;;;;;8.18;1.90;;;17.80;80.70;;;;;;5092693;28;20761;-83
2020/12/09 10:59:39;;;;;;;8.13;1.60;;;17.90;80.80;;;;;;5092466;28;20851;-84
2020/12/09 11:02:06;;;;;;;10.77;2.05;;;17.90;80.70;;;;;;5092105;28;20836;-84
2020/12/09 11:04:34;;;;;;;8.43;1.90;;;17.90;80.80;;;;;;5092382;28;21035;-82
2020/12/09 11:07:07;;;;;;;7.13;2.10;;;17.90;80.80;;;;;;5092311;28;20847;-83
2020/12/09 11:09:34;;;;;;;9.38;1.95;;;17.90;80.90;;;;;;5092187;28;20844;-84
2020/12/09 11:12:02;;;;;;;9.38;2.08;;;17.90;80.90;;;;;;5092041;28;20882;-84
2020/12/09 11:14:29;;;;;;;9.10;2.10;;;17.90;81.00;;;;;;5092292;28;20873;-87
2020/12/09 11:16:56;;;;;;;10.50;2.53;;;17.90;81.20;;;;;;5091531;28;20693;-87
2020/12/09 11:19:23;;;;;;;8.70;1.85;;;17.80;81.20;;;;;;5092015;28;20939;-84
2020/12/09 11:21:54;;;;;;;11.02;2.35;;;17.80;82.00;;;;;;5073645;28;20862;-83
2020/12/09 11:24:21;;;;;;;10.65;1.98;;;17.80;82.10;;;;;;5091525;28;20899;-82
2020/12/09 11:26:49;;;;;;;10.35;2.47;;;17.70;82.30;;;;;;5091736;28;20839;-82
2020/12/09 11:29:16;;;;;;;9.03;2.20;;;17.80;83.00;;;;;;5091890;28;20854;-83
2020/12/09 11:31:43;;;;;;;9.80;2.13;;;17.70;83.20;;;;;;5091811;28;20855;-83
2020/12/09 11:34:11;;;;;;;10.13;2.08;;;17.80;83.30;;;;;;5091456;28;20843;-84
2020/12/09 11:36:38;;;;;;;7.05;1.92;;;17.80;83.80;;;;;;5091361;28;20380;-83
2020/12/09 11:39:05;;;;;;;13.93;2.78;;;17.70;84.30;;;;;;5091379;28;20808;-84
2020/12/09 11:41:35;;;;;;;9.68;1.88;;;17.70;83.90;;;;;;5091411;28;20887;-84
2020/12/09 11:44:03;;;;;;;9.23;2.28;;;17.70;83.90;;;;;;5073576;28;20721;-83
2020/12/09 11:46:30;;;;;;;9.07;1.90;;;17.70;83.80;;;;;;5091453;28;20847;-84
2020/12/09 11:48:58;;;;;;;13.10;2.50;;;17.60;84.10;;;;;;5091419;28;20866;-84
2020/12/09 11:51:25;;;;;;;6.45;2.05;;;17.60;84.30;;;;;;5091384;28;20906;-84
2020/12/09 11:53:52;;;;;;;8.90;2.15;;;17.60;84.30;;;;;;5091082;28;20815;-84
2020/12/09 11:56:26;;;;;;;7.32;1.73;;;17.50;84.60;;;;;;5091094;28;20863;-83
2020/12/09 11:58:53;;;;;;;7.13;1.98;;;17.50;85.00;;;;;;5090999;28;20882;-84
2020/12/09 12:01:21;;;;;;;10.25;2.00;;;17.40;85.00;;;;;;5091008;28;20705;-84
2020/12/09 12:03:48;;;;;;;9.83;2.00;;;17.40;85.00;;;;;;5090940;28;20881;-83
2020/12/09 12:06:25;;;;;;;9.57;1.80;;;17.40;85.20;;;;;;5090937;28;20914;-83
2020/12/09 12:08:53;;;;;;;9.93;1.88;;;17.30;85.40;;;;;;5090934;28;20835;-83
2020/12/09 12:11:22;;;;;;;6.57;1.90;;;17.30;85.80;;;;;;5090787;28;20859;-84
2020/12/09 12:13:50;;;;;;;9.50;2.13;;;17.20;86.00;;;;;;5091376;28;20808;-84
2020/12/09 12:16:20;;;;;;;7.80;1.83;;;17.20;86.40;;;;;;5090863;28;20857;-85
2020/12/09 12:18:48;;;;;;;8.70;1.90;;;17.10;86.70;;;;;;5090891;28;20848;-84
2020/12/09 12:21:16;;;;;;;9.18;1.80;;;17.00;87.00;;;;;;5090608;28;20373;-85
2020/12/09 12:23:45;;;;;;;9.77;2.03;;;17.00;87.00;;;;;;5090942;28;20877;-84
2020/12/09 12:26:17;;;;;;;11.57;2.20;;;17.00;87.00;;;;;;5072315;28;20827;-85
2020/12/09 12:28:45;;;;;;;10.23;2.28;;;17.00;87.30;;;;;;5072357;28;20816;-84
2020/12/09 12:31:16;;;;;;;7.45;2.10;;;17.00;87.10;;;;;;5090975;28;20819;-85
2020/12/09 12:33:43;;;;;;;8.85;1.98;;;17.00;87.20;;;;;;5090302;28;20727;-84
2020/12/09 12:36:12;;;;;;;10.98;2.25;;;16.90;87.40;;;;;;5090865;28;20921;-84
2020/12/09 12:38:39;;;;;;;8.93;2.30;;;16.90;87.80;;;;;;5090544;28;20935;-84
2020/12/09 12:41:08;;;;;;;8.98;2.22;;;16.80;88.30;;;;;;5090575;28;20847;-83
2020/12/09 12:43:37;;;;;;;7.40;2.17;;;16.70;88.90;;;;;;5091151;28;20850;-84
2020/12/09 12:46:04;;;;;;;7.45;2.15;;;16.60;89.30;;;;;;5090919;28;20497;-84
2020/12/09 12:48:31;;;;;;;10.23;2.60;;;16.60;89.30;;;;;;5090699;28;20824;-84
2020/12/09 12:50:58;;;;;;;10.07;2.30;;;16.60;89.30;;;;;;5090661;28;20877;-84
2020/12/09 12:53:25;;;;;;;7.07;1.90;;;16.50;89.60;;;;;;5090371;28;20843;-85